Time;durP1;ratioP1;P1;durP2;ratioP2;P2;SDS_P1;SDS_P2;PMS_P1;PMS_P2;Temp;Humidity;BMP_temperature;BMP_pressure;BME280_temperature;BME280_humidity;BME280_pressure;Samples;Min_cycle;Max_cycle;Signal;HPM_P1;HPM_P2
2021/05/02 00:01:58;;;;;;;7.17;6.47;;;9.40;99.90;;;;;;5093261;28;20247;-74
2021/05/02 00:04:26;;;;;;;5.53;5.03;;;9.30;99.90;;;;;;5093679;28;20578;-74
2021/05/02 00:06:53;;;;;;;7.23;5.57;;;9.20;99.90;;;;;;5086986;28;20206;-73
2021/05/02 00:09:19;;;;;;;6.03;5.53;;;9.10;99.90;;;;;;5085881;28;20202;-73
2021/05/02 00:11:46;;;;;;;6.10;5.40;;;8.90;99.90;;;;;;5092638;28;20213;-71
2021/05/02 00:14:13;;;;;;;5.47;5.03;;;8.90;99.90;;;;;;5093459;28;20216;-72
2021/05/02 00:16:40;;;;;;;5.97;5.20;;;8.90;99.90;;;;;;5093679;28;20202;-72
2021/05/02 00:19:08;;;;;;;5.03;4.63;;;9.00;99.90;;;;;;5080166;28;20213;-72
2021/05/02 00:21:35;;;;;;;6.23;5.63;;;9.00;99.90;;;;;;5091682;28;20209;-71
2021/05/02 00:24:03;;;;;;;5.83;5.23;;;8.70;99.90;;;;;;5090571;28;20201;-71
2021/05/02 00:26:29;;;;;;;6.73;5.67;;;8.70;99.90;;;;;;5092715;28;20209;-71
2021/05/02 00:28:58;;;;;;;6.07;5.47;;;8.60;99.90;;;;;;5092730;28;20636;-71
2021/05/02 00:31:26;;;;;;;7.00;5.23;;;8.50;99.90;;;;;;5093286;28;20205;-71
2021/05/02 00:33:54;;;;;;;6.53;5.93;;;8.50;99.90;;;;;;5092585;28;20232;-71
2021/05/02 00:36:20;;;;;;;9.20;5.97;;;8.50;99.90;;;;;;5092785;28;20259;-71
2021/05/02 00:38:47;;;;;;;6.63;6.03;;;8.40;99.90;;;;;;5092528;28;20216;-71
2021/05/02 00:41:21;;;;;;;6.10;5.50;;;8.40;99.90;;;;;;5092770;28;20201;-73
2021/05/02 00:43:56;;;;;;;8.50;5.53;;;8.30;99.90;;;;;;5092057;28;20253;-75
2021/05/02 00:46:25;;;;;;;6.37;5.83;;;8.50;99.90;;;;;;5092183;28;20204;-73
2021/05/02 00:49:02;;;;;;;5.50;5.00;;;8.50;99.90;;;;;;5092297;28;20210;-73
2021/05/02 00:51:30;;;;;;;6.73;5.80;;;8.50;99.90;;;;;;5092049;28;20591;-73
2021/05/02 00:54:16;;;;;;;7.67;6.83;;;8.50;99.90;;;;;;5092176;28;20210;-73
2021/05/02 00:57:00;;;;;;;5.87;5.37;;;8.40;99.90;;;;;;5093000;28;20198;-73
2021/05/02 00:59:49;;;;;;;8.37;5.10;;;8.30;99.90;;;;;;5092291;28;20230;-73
2021/05/02 01:02:16;;;;;;;5.60;5.10;;;8.30;99.90;;;;;;5092617;28;20263;-75
2021/05/02 01:04:45;;;;;;;6.53;5.70;;;8.20;99.90;;;;;;5092432;28;20202;-73
2021/05/02 01:07:17;;;;;;;6.90;6.30;;;8.20;99.90;;;;;;5092894;28;20640;-74
2021/05/02 01:09:44;;;;;;;5.80;5.27;;;8.10;99.90;;;;;;5092428;28;20205;-73
2021/05/02 01:12:13;;;;;;;7.70;6.10;;;8.10;99.90;;;;;;5092674;28;20259;-73
2021/05/02 01:14:45;;;;;;;7.50;5.37;;;8.10;99.90;;;;;;5092273;28;20202;-74
2021/05/02 01:17:14;;;;;;;5.80;5.30;;;8.10;99.90;;;;;;5085307;28;20206;-75
2021/05/02 01:19:41;;;;;;;6.47;5.83;;;8.10;99.90;;;;;;5085776;28;20205;-75
2021/05/02 01:22:14;;;;;;;7.13;6.10;;;8.20;99.90;;;;;;5092149;28;20209;-75
2021/05/02 01:24:45;;;;;;;6.57;4.70;;;8.00;99.90;;;;;;5092513;28;20573;-74
2021/05/02 01:27:22;;;;;;;7.07;5.53;;;8.10;99.90;;;;;;5092297;28;20207;-74
2021/05/02 01:29:50;;;;;;;6.83;5.03;;;8.10;99.90;;;;;;5091499;28;20550;-72
2021/05/02 01:32:17;;;;;;;7.00;5.97;;;8.20;99.90;;;;;;5091758;28;20225;-72
2021/05/02 01:34:44;;;;;;;7.97;5.70;;;8.20;99.90;;;;;;5091667;28;20278;-72
2021/05/02 01:37:11;;;;;;;8.50;6.20;;;8.20;99.90;;;;;;5091141;28;20209;-72
2021/05/02 01:39:37;;;;;;;5.77;5.10;;;8.20;99.90;;;;;;5091372;28;20205;-72
2021/05/02 01:42:05;;;;;;;6.07;5.33;;;8.20;99.90;;;;;;5091567;28;20212;-72
2021/05/02 01:44:32;;;;;;;5.87;5.17;;;8.30;99.90;;;;;;5091609;28;20198;-72
2021/05/02 01:47:02;;;;;;;4.83;4.33;;;8.40;99.90;;;;;;5091476;28;20266;-72
2021/05/02 01:49:30;;;;;;;6.17;5.57;;;8.40;99.90;;;;;;5091467;28;20209;-72
2021/05/02 01:51:58;;;;;;;5.93;5.43;;;8.40;99.90;;;;;;5090934;28;20217;-72
2021/05/02 01:54:25;;;;;;;6.33;5.73;;;8.40;99.90;;;;;;5091256;28;20209;-72
2021/05/02 01:56:52;;;;;;;5.63;5.03;;;8.30;99.90;;;;;;5091186;28;20206;-72
2021/05/02 01:59:21;;;;;;;6.57;5.43;;;8.20;99.90;;;;;;5091388;28;20213;-72
2021/05/02 02:01:48;;;;;;;5.53;5.00;;;8.10;99.90;;;;;;5091110;28;20206;-72
2021/05/02 02:04:15;;;;;;;5.10;4.60;;;7.90;99.90;;;;;;5091314;28;20227;-73
2021/05/02 02:06:42;;;;;;;6.63;5.93;;;8.00;99.90;;;;;;5091501;28;20243;-73
2021/05/02 02:09:10;;;;;;;5.50;5.00;;;8.00;99.90;;;;;;5091447;28;20224;-72
2021/05/02 02:11:37;;;;;;;9.23;5.70;;;8.10;99.90;;;;;;5091116;28;20201;-72
2021/05/02 02:14:04;;;;;;;6.80;5.53;;;8.10;99.90;;;;;;5090688;28;20240;-73
2021/05/02 02:16:31;;;;;;;8.40;6.03;;;8.10;99.90;;;;;;5091117;28;20205;-72
2021/05/02 02:18:58;;;;;;;8.07;6.57;;;8.00;99.90;;;;;;5090656;28;20213;-72
2021/05/02 02:21:26;;;;;;;8.03;6.37;;;7.70;99.90;;;;;;5090981;28;20582;-72
2021/05/02 02:23:58;;;;;;;6.80;6.20;;;7.70;99.90;;;;;;5062710;28;20206;-72
2021/05/02 02:26:28;;;;;;;6.63;6.03;;;7.80;99.90;;;;;;5091221;28;20209;-72
2021/05/02 02:28:56;;;;;;;6.60;5.63;;;7.80;99.90;;;;;;5090254;28;20738;-72
2021/05/02 02:31:23;;;;;;;6.90;5.93;;;7.80;99.90;;;;;;5090556;28;20210;-72
2021/05/02 02:33:52;;;;;;;6.83;6.23;;;7.90;99.90;;;;;;5090061;28;20225;-72
2021/05/02 02:36:19;;;;;;;7.33;5.60;;;7.70;99.90;;;;;;5090891;28;20557;-72
2021/05/02 02:38:47;;;;;;;11.53;10.33;;;7.60;99.90;;;;;;5090655;28;20209;-72
2021/05/02 02:41:16;;;;;;;12.13;10.93;;;7.70;99.90;;;;;;5090744;28;20210;-72
2021/05/02 02:43:51;;;;;;;13.73;11.00;;;7.70;99.90;;;;;;5090833;28;20213;-72
2021/05/02 02:46:19;;;;;;;12.67;10.60;;;7.80;99.90;;;;;;5076760;28;20260;-72
2021/05/02 02:48:50;;;;;;;8.93;8.03;;;7.60;99.90;;;;;;5068903;28;20551;-73
2021/05/02 02:51:20;;;;;;;11.13;7.10;;;7.40;99.90;;;;;;5070213;28;20245;-73
2021/05/02 02:53:49;;;;;;;8.83;6.37;;;7.50;99.90;;;;;;5070179;28;20234;-73
2021/05/02 02:56:19;;;;;;;6.80;6.03;;;7.50;99.90;;;;;;5070253;28;20309;-73
2021/05/02 02:58:56;;;;;;;7.20;6.50;;;7.60;99.90;;;;;;5069876;28;20289;-73
2021/05/02 03:01:23;;;;;;;6.73;6.03;;;7.70;99.90;;;;;;5070197;28;20681;-74
2021/05/02 03:03:53;;;;;;;7.30;6.60;;;7.60;99.90;;;;;;5055691;28;20280;-74
2021/05/02 03:06:24;;;;;;;7.00;6.30;;;7.60;99.90;;;;;;5070236;28;20210;-74
2021/05/02 03:08:54;;;;;;;7.60;6.90;;;7.70;99.90;;;;;;5069878;28;20217;-73
2021/05/02 03:11:21;;;;;;;6.87;6.13;;;7.70;99.90;;;;;;5070148;28;20601;-74
2021/05/02 03:13:48;;;;;;;8.80;6.17;;;7.70;99.90;;;;;;5069479;28;20244;-73
2021/05/02 03:16:19;;;;;;;6.30;5.70;;;7.90;99.90;;;;;;5070342;28;20210;-74
2021/05/02 03:18:54;;;;;;;10.43;6.37;;;7.80;99.90;;;;;;5069501;28;20670;-74
2021/05/02 03:21:32;;;;;;;7.10;6.40;;;7.60;99.90;;;;;;5069940;28;20220;-74
2021/05/02 03:24:02;;;;;;;9.43;5.97;;;7.40;99.90;;;;;;5069506;28;20224;-74
2021/05/02 03:26:30;;;;;;;8.77;6.40;;;7.50;99.90;;;;;;5070050;28;20224;-75
2021/05/02 03:28:58;;;;;;;7.43;5.60;;;7.60;99.90;;;;;;5069785;28;20209;-72
2021/05/02 03:31:29;;;;;;;7.30;5.87;;;7.60;99.90;;;;;;5070052;28;20202;-75
2021/05/02 03:34:01;;;;;;;10.13;5.83;;;7.60;99.90;;;;;;5069471;28;20637;-72
2021/05/02 03:36:34;;;;;;;9.40;6.73;;;7.40;99.90;;;;;;5069881;28;20198;-74
2021/05/02 03:39:01;;;;;;;7.90;7.20;;;7.00;99.90;;;;;;5069532;28;20202;-72
2021/05/02 03:41:28;;;;;;;7.60;6.77;;;7.10;99.90;;;;;;5069981;28;20206;-72
2021/05/02 03:43:55;;;;;;;9.07;6.37;;;7.30;99.90;;;;;;5069414;28;20210;-74
2021/05/02 03:46:24;;;;;;;7.13;6.43;;;7.40;99.90;;;;;;5069998;28;20675;-74
2021/05/02 03:48:56;;;;;;;7.73;6.60;;;7.40;99.90;;;;;;5069633;28;20256;-73
2021/05/02 03:51:23;;;;;;;7.53;6.83;;;7.50;99.90;;;;;;5069523;28;20240;-74
2021/05/02 03:53:51;;;;;;;7.10;6.50;;;7.40;99.90;;;;;;5069706;28;20234;-74
2021/05/02 03:56:34;;;;;;;10.47;7.03;;;7.40;99.90;;;;;;5069570;28;20312;-73
2021/05/02 03:59:09;;;;;;;9.83;6.57;;;7.20;99.90;;;;;;5069746;28;20213;-74
2021/05/02 04:01:36;;;;;;;10.00;6.70;;;7.10;99.90;;;;;;5057689;28;20209;-74
2021/05/02 04:04:03;;;;;;;8.40;7.43;;;7.10;99.90;;;;;;5064988;28;20217;-73
2021/05/02 04:06:29;;;;;;;8.90;7.10;;;7.10;99.90;;;;;;5068954;28;20206;-75
2021/05/02 04:08:57;;;;;;;8.00;7.27;;;7.10;99.90;;;;;;5072755;28;20224;-73
2021/05/02 04:11:23;;;;;;;8.47;7.17;;;7.30;99.90;;;;;;5072787;28;20209;-73
2021/05/02 04:13:50;;;;;;;9.60;6.80;;;7.20;99.90;;;;;;5072186;28;20649;-74
2021/05/02 04:16:17;;;;;;;10.20;7.17;;;7.20;99.90;;;;;;5073130;28;20580;-73
2021/05/02 04:18:44;;;;;;;8.03;7.17;;;7.20;99.90;;;;;;5067085;28;20202;-73
2021/05/02 04:21:11;;;;;;;7.73;6.93;;;7.30;99.90;;;;;;5073220;28;20206;-73
2021/05/02 04:23:39;;;;;;;8.17;7.00;;;7.20;99.90;;;;;;5072904;28;20203;-73
2021/05/02 04:26:06;;;;;;;7.83;6.70;;;7.10;99.90;;;;;;5072361;28;20244;-73
2021/05/02 04:28:33;;;;;;;8.03;6.17;;;6.90;99.90;;;;;;5067401;28;20206;-73
2021/05/02 04:30:59;;;;;;;7.70;5.77;;;6.90;99.90;;;;;;5072296;28;20214;-73
2021/05/02 04:33:26;;;;;;;10.47;6.90;;;6.80;99.90;;;;;;5072468;28;20295;-74
2021/05/02 04:35:52;;;;;;;6.93;6.33;;;6.90;99.90;;;;;;5072249;28;20579;-73
2021/05/02 04:38:19;;;;;;;9.47;6.53;;;7.00;99.90;;;;;;5072525;28;20203;-73
2021/05/02 04:40:45;;;;;;;6.90;6.17;;;7.00;99.90;;;;;;5072090;28;20217;-72
2021/05/02 04:43:13;;;;;;;7.63;6.83;;;6.90;99.90;;;;;;5072405;28;20209;-72
2021/05/02 04:45:39;;;;;;;8.87;6.30;;;6.90;99.90;;;;;;5072506;28;20202;-72
2021/05/02 04:48:07;;;;;;;7.63;6.90;;;6.80;99.90;;;;;;5072067;28;20206;-72
2021/05/02 04:50:34;;;;;;;7.30;6.03;;;6.70;99.90;;;;;;5072552;28;20214;-72
2021/05/02 04:53:00;;;;;;;8.23;6.20;;;6.70;99.90;;;;;;5057794;28;20324;-73
2021/05/02 04:55:27;;;;;;;8.30;6.93;;;6.70;99.90;;;;;;5069707;28;20213;-71
2021/05/02 04:57:54;;;;;;;13.27;7.20;;;6.70;99.90;;;;;;5071409;28;20697;-71
2021/05/02 05:00:24;;;;;;;9.63;6.90;;;6.70;99.90;;;;;;5072120;28;20209;-71
2021/05/02 05:02:50;;;;;;;9.90;7.00;;;6.70;99.90;;;;;;5071762;28;20572;-72
2021/05/02 05:05:17;;;;;;;7.70;6.93;;;6.80;99.90;;;;;;5071930;28;20217;-72
2021/05/02 05:07:43;;;;;;;7.23;6.53;;;6.80;99.90;;;;;;5071769;28;20630;-74
2021/05/02 05:10:11;;;;;;;9.27;7.07;;;8.00;99.90;;;;;;5072259;28;20580;-71
2021/05/02 05:12:38;;;;;;;6.40;5.80;;;7.20;99.90;;;;;;5071758;28;20299;-71
2021/05/02 05:15:05;;;;;;;6.03;5.53;;;7.30;99.90;;;;;;5071543;28;20206;-72
2021/05/02 05:17:33;;;;;;;7.60;6.07;;;7.60;99.90;;;;;;5071885;28;20260;-72
2021/05/02 05:20:00;;;;;;;6.80;6.20;;;7.70;99.90;;;;;;5071188;28;20558;-72
2021/05/02 05:22:26;;;;;;;7.20;6.33;;;7.70;99.90;;;;;;5071857;28;20287;-72
2021/05/02 05:24:53;;;;;;;13.50;6.83;;;7.80;99.90;;;;;;5071163;28;20630;-74
2021/05/02 05:27:19;;;;;;;7.10;6.40;;;8.00;99.90;;;;;;5071490;28;20202;-75
2021/05/02 05:29:45;;;;;;;10.27;5.93;;;8.10;99.90;;;;;;5071264;28;20264;-75
2021/05/02 05:32:12;;;;;;;9.13;6.30;;;8.30;99.90;;;;;;5071786;28;20214;-75
2021/05/02 05:34:39;;;;;;;10.50;6.67;;;8.50;99.90;;;;;;5071592;28;20225;-74
2021/05/02 05:37:06;;;;;;;6.97;6.27;;;8.50;99.90;;;;;;5070900;28;20210;-75
2021/05/02 05:39:32;;;;;;;7.53;6.13;;;8.60;99.90;;;;;;5071368;28;20574;-75
2021/05/02 05:41:59;;;;;;;8.33;6.67;;;8.70;99.90;;;;;;5071074;28;20203;-74
2021/05/02 05:44:25;;;;;;;11.33;6.50;;;8.50;99.90;;;;;;5071137;28;20202;-73
2021/05/02 05:46:52;;;;;;;7.70;6.43;;;8.40;99.90;;;;;;5071073;28;20225;-72
2021/05/02 05:49:19;;;;;;;7.57;6.77;;;8.40;99.90;;;;;;5071200;28;20198;-74
2021/05/02 05:51:48;;;;;;;7.37;6.40;;;8.30;99.90;;;;;;5070448;28;20233;-73
2021/05/02 05:54:15;;;;;;;15.87;6.10;;;8.40;99.90;;;;;;5070776;28;20723;-74
2021/05/02 05:56:41;;;;;;;8.07;6.20;;;8.60;99.90;;;;;;5071444;28;20573;-72
2021/05/02 05:59:08;;;;;;;7.37;5.50;;;8.80;99.90;;;;;;5071231;28;20263;-73
2021/05/02 06:01:34;;;;;;;8.33;6.93;;;9.00;99.90;;;;;;5070606;28;20210;-74
2021/05/02 06:04:01;;;;;;;7.03;5.73;;;9.10;99.90;;;;;;5070701;28;20259;-73
2021/05/02 06:06:32;;;;;;;6.37;5.40;;;9.30;99.90;;;;;;5070838;28;20205;-74
2021/05/02 06:09:00;;;;;;;7.00;5.73;;;9.10;99.90;;;;;;5070516;28;20225;-72
2021/05/02 06:11:29;;;;;;;9.97;6.77;;;9.20;99.90;;;;;;5070767;28;20209;-73
2021/05/02 06:13:55;;;;;;;5.67;5.13;;;9.30;99.90;;;;;;5056733;28;20229;-75
2021/05/02 06:16:22;;;;;;;8.17;6.50;;;9.30;99.90;;;;;;5070554;28;20206;-74
2021/05/02 06:18:48;;;;;;;6.00;5.50;;;9.50;99.90;;;;;;5070102;28;20210;-74
2021/05/02 06:21:15;;;;;;;7.27;6.10;;;9.30;99.90;;;;;;5069061;28;20209;-74
2021/05/02 06:23:41;;;;;;;7.13;6.37;;;9.20;99.90;;;;;;5069990;28;20210;-75
2021/05/02 06:26:08;;;;;;;9.50;6.30;;;9.10;99.90;;;;;;5067069;28;20217;-74
2021/05/02 06:28:35;;;;;;;7.43;6.23;;;9.10;99.90;;;;;;5065969;28;20202;-74
2021/05/02 06:31:01;;;;;;;6.90;6.30;;;9.20;99.90;;;;;;5064099;28;20202;-73
2021/05/02 06:33:28;;;;;;;9.03;6.60;;;9.20;99.90;;;;;;5070312;28;20245;-73
2021/05/02 06:35:54;;;;;;;7.03;6.33;;;9.10;99.90;;;;;;5070081;28;20210;-74
2021/05/02 06:38:21;;;;;;;8.97;8.13;;;9.10;99.90;;;;;;5070276;28;20253;-74
2021/05/02 06:40:47;;;;;;;8.77;6.37;;;9.10;99.90;;;;;;5069650;28;20209;-74
2021/05/02 06:43:14;;;;;;;8.53;6.53;;;9.10;99.90;;;;;;5070176;28;20209;-73
2021/05/02 06:45:41;;;;;;;8.80;7.30;;;9.20;99.90;;;;;;5069422;28;20202;-73
2021/05/02 06:48:09;;;;;;;7.67;6.87;;;9.40;99.90;;;;;;5067345;28;20202;-74
2021/05/02 06:50:35;;;;;;;9.07;7.30;;;9.60;99.90;;;;;;5064225;28;20206;-73
2021/05/02 06:53:02;;;;;;;8.33;7.20;;;9.60;99.90;;;;;;5061535;28;20279;-71
2021/05/02 06:55:28;;;;;;;10.37;6.70;;;9.80;99.90;;;;;;5065217;28;20210;-71
2021/05/02 06:57:56;;;;;;;13.23;6.73;;;10.20;99.90;;;;;;5054459;28;20229;-71
2021/05/02 07:00:23;;;;;;;6.53;5.80;;;10.10;99.90;;;;;;5057872;28;20339;-71
2021/05/02 07:02:50;;;;;;;9.90;7.60;;;10.00;99.90;;;;;;5070268;28;20211;-71
2021/05/02 07:05:16;;;;;;;10.67;7.13;;;9.80;99.90;;;;;;5069927;28;20202;-71
2021/05/02 07:07:43;;;;;;;8.00;6.63;;;9.90;99.90;;;;;;5066826;28;20206;-71
2021/05/02 07:10:10;;;;;;;8.13;7.13;;;10.00;99.90;;;;;;5070321;28;20202;-71
2021/05/02 07:12:36;;;;;;;9.50;6.70;;;10.20;99.90;;;;;;5070054;28;20602;-71
2021/05/02 07:15:03;;;;;;;7.50;6.37;;;10.20;99.90;;;;;;5069524;28;20606;-72
2021/05/02 07:17:31;;;;;;;6.50;5.90;;;10.30;99.90;;;;;;5067418;28;20202;-72
2021/05/02 07:19:58;;;;;;;9.57;7.57;;;10.60;99.90;;;;;;5073729;28;20202;-72
2021/05/02 07:22:26;;;;;;;10.67;7.23;;;10.90;99.90;;;;;;5062271;28;20200;-72
2021/05/02 07:24:52;;;;;;;11.10;6.23;;;10.90;99.90;;;;;;5061649;28;20639;-73
2021/05/02 07:27:19;;;;;;;7.90;7.10;;;11.00;99.90;;;;;;5067403;28;20213;-73
2021/05/02 07:29:46;;;;;;;7.50;6.73;;;11.20;99.90;;;;;;5069420;28;20598;-72
2021/05/02 07:32:13;;;;;;;8.00;7.17;;;11.20;99.90;;;;;;5066101;28;20206;-71
2021/05/02 07:34:40;;;;;;;8.70;6.67;;;11.40;99.90;;;;;;5072072;28;20616;-70
2021/05/02 07:37:07;;;;;;;8.77;7.43;;;11.50;99.90;;;;;;5069089;28;20240;-70
2021/05/02 07:39:33;;;;;;;14.67;6.77;;;11.70;99.90;;;;;;5066166;28;20705;-70
2021/05/02 07:42:00;;;;;;;8.27;7.23;;;11.80;99.90;;;;;;5066696;28;20211;-74
2021/05/02 07:44:26;;;;;;;7.47;6.77;;;11.90;99.90;;;;;;5065550;28;20217;-74
2021/05/02 07:46:52;;;;;;;10.43;7.70;;;12.30;99.90;;;;;;5072848;28;20203;-77
2021/05/02 07:49:19;;;;;;;7.77;7.07;;;12.70;99.90;;;;;;5072791;28;20205;-74
2021/05/02 07:51:46;;;;;;;9.67;7.47;;;12.90;99.90;;;;;;5065490;28;20211;-74
2021/05/02 07:54:13;;;;;;;8.23;6.97;;;12.80;99.90;;;;;;5068883;28;20653;-73
2021/05/02 07:56:39;;;;;;;8.63;7.20;;;13.10;99.90;;;;;;5059718;28;20206;-73
2021/05/02 07:59:05;;;;;;;9.63;7.53;;;13.20;99.90;;;;;;5063458;28;20206;-73
2021/05/02 08:01:32;;;;;;;9.43;6.60;;;13.50;99.90;;;;;;5066404;28;20588;-74
2021/05/02 08:03:58;;;;;;;8.37;6.50;;;13.70;99.90;;;;;;5064522;28;20264;-73
2021/05/02 08:06:25;;;;;;;7.50;6.75;;;13.70;99.90;;;;;;5071289;28;20272;-74
2021/05/02 08:08:53;;;;;;;7.93;7.18;;;13.80;99.90;;;;;;5071788;28;20211;-74
2021/05/02 08:11:20;;;;;;;8.35;7.00;;;14.20;99.90;;;;;;5072554;28;20213;-74
2021/05/02 08:13:46;;;;;;;7.18;6.47;;;14.90;99.90;;;;;;5071131;28;20702;-74
2021/05/02 08:16:12;;;;;;;10.52;7.35;;;15.10;99.90;;;;;;5073089;28;20206;-73
2021/05/02 08:18:39;;;;;;;7.75;6.90;;;14.50;99.90;;;;;;5072939;28;20260;-75
2021/05/02 08:21:09;;;;;;;8.55;6.43;;;14.00;99.90;;;;;;5072279;28;20202;-73
2021/05/02 08:23:36;;;;;;;7.25;6.20;;;13.50;99.90;;;;;;5072630;28;20210;-73
2021/05/02 08:26:03;;;;;;;7.65;6.10;;;13.40;99.90;;;;;;5072688;28;20619;-74
2021/05/02 08:28:30;;;;;;;8.00;6.15;;;14.20;99.90;;;;;;5072885;28;20202;-74
2021/05/02 08:30:56;;;;;;;7.22;6.55;;;14.70;99.90;;;;;;5072764;28;20232;-75
2021/05/02 08:33:23;;;;;;;10.10;6.63;;;15.10;99.90;;;;;;5073072;28;20233;-74
2021/05/02 08:35:49;;;;;;;6.60;6.00;;;14.20;99.90;;;;;;5071959;28;20220;-74
2021/05/02 08:38:16;;;;;;;8.50;6.53;;;14.30;99.90;;;;;;5070849;28;20198;-74
2021/05/02 08:40:43;;;;;;;11.07;6.65;;;14.50;99.90;;;;;;5072724;28;20678;-75
2021/05/02 08:43:11;;;;;;;9.10;5.88;;;14.60;99.90;;;;;;5072761;28;20205;-75
2021/05/02 08:45:38;;;;;;;9.15;6.60;;;14.90;99.90;;;;;;5071799;28;20673;-73
2021/05/02 08:48:05;;;;;;;6.85;5.93;;;14.40;99.90;;;;;;5072304;28;20210;-73
2021/05/02 08:50:31;;;;;;;7.47;6.65;;;13.70;99.90;;;;;;5072162;28;20206;-74
2021/05/02 08:52:58;;;;;;;7.97;6.35;;;13.10;99.90;;;;;;5071845;28;20599;-75
2021/05/02 08:55:24;;;;;;;7.22;5.97;;;13.20;99.90;;;;;;5072548;28;20202;-73
2021/05/02 08:57:52;;;;;;;8.93;6.80;;;13.50;99.90;;;;;;5072240;28;20210;-75
2021/05/02 09:00:21;;;;;;;9.13;5.78;;;14.20;99.90;;;;;;5058918;28;20620;-75
2021/05/02 09:02:54;;;;;;;8.20;5.72;;;15.90;99.90;;;;;;5071774;28;20259;-74
2021/05/02 09:05:21;;;;;;;6.43;5.80;;;18.70;99.90;;;;;;5072133;28;20198;-75
2021/05/02 09:07:48;;;;;;;6.65;5.90;;;18.30;99.90;;;;;;5071806;28;20734;-74
2021/05/02 09:10:17;;;;;;;8.20;6.35;;;18.70;99.90;;;;;;5071928;28;20210;-74
2021/05/02 09:12:58;;;;;;;7.40;5.90;;;17.30;99.90;;;;;;5072332;28;20226;-75
2021/05/02 09:15:26;;;;;;;6.95;6.25;;;16.30;99.90;;;;;;5071779;28;20279;-74
2021/05/02 09:17:57;;;;;;;6.68;5.97;;;16.00;99.90;;;;;;5071508;28;20209;-75
2021/05/02 09:20:43;;;;;;;7.55;6.85;;;15.50;99.90;;;;;;5071929;28;20205;-75
2021/05/02 09:23:10;;;;;;;7.85;6.05;;;15.10;99.90;;;;;;5071633;28;20217;-75
2021/05/02 09:25:48;;;;;;;8.88;6.72;;;15.60;99.90;;;;;;5059195;28;20209;-75
2021/05/02 09:28:15;;;;;;;6.20;5.70;;;16.60;99.90;;;;;;5071757;28;20209;-73
2021/05/02 09:30:42;;;;;;;7.22;6.20;;;17.30;99.90;;;;;;5072050;28;20206;-75
2021/05/02 09:33:09;;;;;;;7.88;7.00;;;16.20;99.90;;;;;;5071564;28;20237;-76
2021/05/02 09:35:36;;;;;;;6.13;5.63;;;15.50;99.90;;;;;;5071605;28;20583;-76
2021/05/02 09:38:10;;;;;;;6.78;6.07;;;16.00;99.90;;;;;;5071074;28;20213;-75
2021/05/02 09:40:54;;;;;;;6.82;6.18;;;16.50;99.90;;;;;;5071191;28;20589;-75
2021/05/02 09:43:31;;;;;;;6.95;6.03;;;16.30;99.90;;;;;;5071686;28;20206;-75
2021/05/02 09:46:25;;;;;;;6.35;5.75;;;16.20;99.90;;;;;;5070774;28;20213;-74
2021/05/02 09:48:54;;;;;;;8.15;7.28;;;16.20;99.90;;;;;;5070811;28;20263;-74
2021/05/02 09:51:22;;;;;;;7.68;6.47;;;15.50;99.90;;;;;;5057602;28;20681;-75
2021/05/02 09:54:06;;;;;;;6.75;6.15;;;14.60;99.90;;;;;;5071154;28;20238;-74
2021/05/02 09:56:35;;;;;;;9.25;7.28;;;14.70;99.90;;;;;;5068035;28;20593;-74
2021/05/02 09:59:03;;;;;;;9.98;6.82;;;15.70;99.90;;;;;;5070736;28;20619;-75
2021/05/02 10:01:30;;;;;;;7.68;5.95;;;16.00;99.90;;;;;;5070550;28;20563;-74
2021/05/02 10:03:59;;;;;;;6.10;5.55;;;17.60;99.90;;;;;;5070708;28;20598;-75
2021/05/02 10:06:35;;;;;;;7.85;6.68;;;17.60;99.90;;;;;;5071148;28;20260;-74
2021/05/02 10:09:06;;;;;;;5.43;4.93;;;18.80;99.90;;;;;;5070808;28;20279;-75
2021/05/02 10:11:33;;;;;;;6.63;5.93;;;19.60;99.90;;;;;;5071053;28;20622;-75
2021/05/02 10:14:02;;;;;;;6.18;5.57;;;18.90;99.90;;;;;;5070558;28;20234;-75
2021/05/02 10:16:30;;;;;;;5.72;5.22;;;17.60;99.90;;;;;;5070970;28;20233;-74
2021/05/02 10:18:59;;;;;;;5.63;5.07;;;16.10;99.90;;;;;;5070481;28;20697;-74
2021/05/02 10:21:26;;;;;;;6.28;5.63;;;15.20;99.90;;;;;;5070857;28;20206;-75
2021/05/02 10:23:53;;;;;;;6.80;6.07;;;14.90;99.90;;;;;;5070320;28;20206;-74
2021/05/02 10:26:19;;;;;;;6.40;5.68;;;14.70;99.90;;;;;;5070719;28;20672;-74
2021/05/02 10:28:48;;;;;;;7.55;6.78;;;14.60;99.90;;;;;;5070033;28;20206;-74
2021/05/02 10:31:15;;;;;;;7.20;6.18;;;14.80;99.90;;;;;;5070835;28;20343;-75
2021/05/02 10:33:44;;;;;;;7.05;4.57;;;16.00;99.90;;;;;;5070680;28;20237;-75
2021/05/02 10:36:11;;;;;;;5.43;4.63;;;17.00;99.90;;;;;;5071099;28;20206;-75
2021/05/02 10:38:49;;;;;;;6.30;4.82;;;16.70;99.90;;;;;;5070860;28;20293;-74
2021/05/02 10:41:28;;;;;;;4.85;4.45;;;15.60;99.90;;;;;;5058026;28;20256;-74
2021/05/02 10:43:55;;;;;;;5.43;4.97;;;14.90;99.90;;;;;;5070257;28;20244;-73
2021/05/02 10:46:49;;;;;;;5.43;4.63;;;14.40;99.90;;;;;;5070553;28;20210;-74
2021/05/02 10:49:56;;;;;;;7.00;4.97;;;14.30;99.90;;;;;;5070315;28;20206;-73
2021/05/02 10:52:35;;;;;;;4.18;3.88;;;14.30;99.90;;;;;;5058472;28;20268;-74
2021/05/02 10:55:16;;;;;;;5.35;3.80;;;15.60;99.90;;;;;;5069892;28;20201;-73
2021/05/02 10:57:42;;;;;;;6.32;4.22;;;16.40;99.90;;;;;;5070690;28;20278;-74
2021/05/02 11:00:10;;;;;;;4.95;4.07;;;16.50;99.90;;;;;;5069703;28;20688;-73
2021/05/02 11:02:40;;;;;;;6.65;4.07;;;17.20;99.90;;;;;;5070279;28;20214;-74
2021/05/02 11:05:09;;;;;;;5.28;4.43;;;17.10;99.90;;;;;;5070096;28;20229;-73
2021/05/02 11:07:40;;;;;;;4.68;4.28;;;16.80;99.90;;;;;;5070621;28;20615;-73
2021/05/02 11:10:09;;;;;;;4.47;4.07;;;16.00;99.90;;;;;;5074174;28;20263;-74
2021/05/02 11:12:36;;;;;;;7.40;4.38;;;15.50;99.90;;;;;;5074363;28;20658;-74
2021/05/02 11:15:33;;;;;;;4.07;3.75;;;15.10;99.90;;;;;;5073534;28;20217;-74
2021/05/02 11:17:59;;;;;;;3.72;3.42;;;15.10;99.90;;;;;;5073803;28;20589;-74
2021/05/02 11:20:49;;;;;;;4.57;3.92;;;15.80;99.90;;;;;;5074248;28;20209;-74
2021/05/02 11:23:16;;;;;;;4.70;3.50;;;16.30;99.90;;;;;;5074136;28;20686;-73
2021/05/02 11:25:48;;;;;;;3.10;2.83;;;16.30;99.90;;;;;;5073074;28;20259;-71
2021/05/02 11:28:34;;;;;;;3.83;3.50;;;15.90;99.90;;;;;;5073911;28;20206;-72
2021/05/02 11:31:01;;;;;;;3.63;3.35;;;15.80;99.90;;;;;;5073730;28;20217;-72
2021/05/02 11:33:27;;;;;;;3.60;3.25;;;15.90;99.90;;;;;;5073724;28;20736;-73
2021/05/02 11:35:55;;;;;;;5.93;3.45;;;15.70;99.90;;;;;;5073423;28;20202;-74
2021/05/02 11:38:46;;;;;;;3.80;3.50;;;15.70;99.90;;;;;;5074019;28;20225;-74
2021/05/02 11:41:13;;;;;;;3.85;3.03;;;16.00;99.90;;;;;;5061184;28;20206;-74
2021/05/02 11:43:44;;;;;;;3.95;3.60;;;16.70;99.90;;;;;;5073941;28;20255;-72
2021/05/02 11:46:19;;;;;;;3.65;2.90;;;16.90;99.90;;;;;;5074000;28;20217;-74
2021/05/02 11:48:50;;;;;;;5.65;3.00;;;17.00;99.90;;;;;;5073431;28;20252;-74
2021/05/02 11:51:22;;;;;;;4.18;3.22;;;16.90;99.90;;;;;;5073504;28;20232;-74
2021/05/02 11:53:51;;;;;;;2.85;2.17;;;16.50;99.90;;;;;;5073213;28;20325;-72
2021/05/02 11:56:21;;;;;;;4.00;3.40;;;16.30;99.90;;;;;;5073096;28;20264;-73
2021/05/02 11:58:48;;;;;;;5.57;3.50;;;15.90;99.90;;;;;;5063968;28;20210;-75
2021/05/02 12:01:17;;;;;;;3.70;3.30;;;16.00;99.90;;;;;;5067687;28;20296;-74
2021/05/02 12:03:45;;;;;;;4.40;3.70;;;16.00;99.90;;;;;;5073251;28;20736;-74
2021/05/02 12:06:25;;;;;;;4.85;3.50;;;15.80;99.90;;;;;;5073688;28;20259;-74
2021/05/02 12:08:52;;;;;;;4.22;3.45;;;15.60;99.90;;;;;;5072975;28;20209;-74
2021/05/02 12:11:18;;;;;;;4.57;3.22;;;15.90;99.90;;;;;;5073175;28;20206;-74
2021/05/02 12:13:49;;;;;;;3.85;3.50;;;16.70;99.90;;;;;;5072345;28;20218;-74
2021/05/02 12:16:17;;;;;;;4.00;3.47;;;16.70;99.90;;;;;;5073361;28;20198;-74
2021/05/02 12:18:56;;;;;;;3.17;2.88;;;16.90;99.90;;;;;;5073072;28;20203;-74
2021/05/02 12:21:27;;;;;;;5.50;2.90;;;16.90;99.90;;;;;;5072145;28;20212;-72
2021/05/02 12:24:02;;;;;;;3.42;3.10;;;16.80;99.90;;;;;;5072525;28;20203;-74
2021/05/02 12:26:29;;;;;;;3.20;2.63;;;16.70;99.90;;;;;;5072789;28;20567;-72
2021/05/02 12:28:58;;;;;;;2.78;2.58;;;16.70;99.90;;;;;;5072588;28;20202;-73
2021/05/02 12:31:25;;;;;;;3.55;2.35;;;16.80;99.90;;;;;;5072792;28;20590;-74
2021/05/02 12:33:52;;;;;;;1.98;1.65;;;17.00;99.90;;;;;;5071985;28;20233;-74
2021/05/02 12:36:18;;;;;;;2.70;1.80;;;17.40;99.90;;;;;;5073065;28;20206;-73
2021/05/02 12:38:58;;;;;;;2.50;2.28;;;17.10;99.90;;;;;;5072337;28;20260;-74
2021/05/02 12:41:25;;;;;;;4.35;2.72;;;16.40;99.90;;;;;;5072886;28;20224;-74
2021/05/02 12:43:51;;;;;;;5.68;2.28;;;16.00;99.90;;;;;;5071959;28;20686;-76
2021/05/02 12:46:42;;;;;;;3.05;2.05;;;15.70;99.90;;;;;;5072589;28;20260;-74
2021/05/02 12:49:14;;;;;;;2.58;2.38;;;16.10;99.90;;;;;;5072123;28;20203;-76
2021/05/02 12:51:41;;;;;;;2.00;1.83;;;16.50;99.90;;;;;;5072755;28;20743;-75
2021/05/02 12:54:11;;;;;;;2.33;1.90;;;16.50;99.90;;;;;;5072261;28;20306;-76
2021/05/02 12:56:39;;;;;;;2.45;1.70;;;16.10;99.90;;;;;;5072391;28;20210;-76
2021/05/02 12:59:30;;;;;;;2.75;1.40;;;15.80;99.90;;;;;;5072201;28;20263;-76
2021/05/02 13:02:09;;;;;;;2.53;1.60;;;15.70;99.90;;;;;;5071538;28;20199;-76